Terminal Aerodrome Forecast
Issued by NWS Jackson, KY

Home | Current Version | Previous Version | Text Only | Print | Product List | Glossary On
Versions: 1 2 3 4 5 6 7 8 9 10 11 12 13 14 15 16 17 18
000
FTUS43 KJKL 232339
TAFJKL
TAF
KJKL 232339Z 2400/2424 VRB06KT 6SM -TSRA BR SCT001CB BKN060
     FM240300 VRB06KT 5SM BR SCT001 BKN045
     FM241000 VRB06KT 1SM BR SCT001 BKN003
     FM241200 VRB06KT 3SM BR VCTS SCT001CB OVC003
     FM241400 VRB06KT 3SM SHRA BR VCTS SCT020CB OVC035
     FM241800 VRB03KT 3SM SHRA BR SCT008 OVC015=

USA.gov is the U.S. government's official web portal to all federal, state and local government web resources and services.